sensor_id;sensor_type;location;lat;lon;timestamp;temperature;humidity
30473;DHT22;17263;48.160;11.452;2024-01-16T00:00:08;-1.60;99.90
30473;DHT22;17263;48.160;11.452;2024-01-16T00:02:34;-1.50;99.90
30473;DHT22;17263;48.160;11.452;2024-01-16T00:05:00;-1.60;99.90
30473;DHT22;17263;48.160;11.452;2024-01-16T00:07:26;-1.60;99.90
30473;DHT22;17263;48.160;11.452;2024-01-16T00:09:52;-1.60;99.90
30473;DHT22;17263;48.160;11.452;2024-01-16T00:12:21;-1.70;99.90
30473;DHT22;17263;48.160;11.452;2024-01-16T00:14:47;-1.80;99.90
30473;DHT22;17263;48.160;11.452;2024-01-16T00:17:13;-1.80;99.90
30473;DHT22;17263;48.160;11.452;2024-01-16T00:19:40;-1.80;99.90
30473;DHT22;17263;48.160;11.452;2024-01-16T00:22:06;-1.90;99.90
30473;DHT22;17263;48.160;11.452;2024-01-16T00:24:32;-1.90;99.90
30473;DHT22;17263;48.160;11.452;2024-01-16T00:26:58;-1.90;99.90
30473;DHT22;17263;48.160;11.452;2024-01-16T00:29:24;-2.00;99.90
30473;DHT22;17263;48.160;11.452;2024-01-16T00:31:50;-2.00;99.90
30473;DHT22;17263;48.160;11.452;2024-01-16T00:34:16;-2.00;99.90
30473;DHT22;17263;48.160;11.452;2024-01-16T00:36:42;-2.00;99.90
30473;DHT22;17263;48.160;11.452;2024-01-16T00:39:08;-2.10;99.90
30473;DHT22;17263;48.160;11.452;2024-01-16T00:41:35;-2.20;99.90
30473;DHT22;17263;48.160;11.452;2024-01-16T00:44:01;-2.20;99.90
30473;DHT22;17263;48.160;11.452;2024-01-16T00:46:27;-2.30;99.90
30473;DHT22;17263;48.160;11.452;2024-01-16T00:48:53;-2.40;99.90
30473;DHT22;17263;48.160;11.452;2024-01-16T00:51:19;-2.40;99.90
30473;DHT22;17263;48.160;11.452;2024-01-16T00:53:45;-2.50;99.90
30473;DHT22;17263;48.160;11.452;2024-01-16T00:56:11;-2.60;99.90
30473;DHT22;17263;48.160;11.452;2024-01-16T00:58:38;-2.60;99.90
30473;DHT22;17263;48.160;11.452;2024-01-16T01:01:04;-2.70;99.90
30473;DHT22;17263;48.160;11.452;2024-01-16T01:03:31;-2.80;99.90
30473;DHT22;17263;48.160;11.452;2024-01-16T01:05:57;-2.80;99.90
30473;DHT22;17263;48.160;11.452;2024-01-16T01:08:23;-2.80;99.90
30473;DHT22;17263;48.160;11.452;2024-01-16T01:10:49;-2.90;99.90
30473;DHT22;17263;48.160;11.452;2024-01-16T01:13:15;-3.00;99.90
30473;DHT22;17263;48.160;11.452;2024-01-16T01:15:41;-3.00;99.90
30473;DHT22;17263;48.160;11.452;2024-01-16T01:18:07;-3.00;99.90
30473;DHT22;17263;48.160;11.452;2024-01-16T01:20:33;-3.00;99.90
30473;DHT22;17263;48.160;11.452;2024-01-16T01:22:59;-3.10;99.90
30473;DHT22;17263;48.160;11.452;2024-01-16T01:25:25;-3.10;99.90
30473;DHT22;17263;48.160;11.452;2024-01-16T01:27:52;-3.10;99.90
30473;DHT22;17263;48.160;11.452;2024-01-16T01:30:18;-3.10;99.90
30473;DHT22;17263;48.160;11.452;2024-01-16T01:32:44;-3.10;99.90
30473;DHT22;17263;48.160;11.452;2024-01-16T01:35:10;-3.00;99.90
30473;DHT22;17263;48.160;11.452;2024-01-16T01:37:37;-2.90;99.90
30473;DHT22;17263;48.160;11.452;2024-01-16T01:40:04;-2.90;99.90
30473;DHT22;17263;48.160;11.452;2024-01-16T01:42:30;-2.80;99.90
30473;DHT22;17263;48.160;11.452;2024-01-16T01:44:56;-2.70;99.90
30473;DHT22;17263;48.160;11.452;2024-01-16T01:47:22;-2.70;99.90
30473;DHT22;17263;48.160;11.452;2024-01-16T01:49:49;-2.70;99.90
30473;DHT22;17263;48.160;11.452;2024-01-16T01:52:15;-2.70;99.90
30473;DHT22;17263;48.160;11.452;2024-01-16T01:54:41;-2.70;99.90
30473;DHT22;17263;48.160;11.452;2024-01-16T01:57:08;-2.70;99.90
30473;DHT22;17263;48.160;11.452;2024-01-16T01:59:35;-2.60;99.90
30473;DHT22;17263;48.160;11.452;2024-01-16T02:02:03;-2.60;99.90
30473;DHT22;17263;48.160;11.452;2024-01-16T02:04:31;-2.50;99.90
30473;DHT22;17263;48.160;11.452;2024-01-16T02:06:58;-2.50;99.90
30473;DHT22;17263;48.160;11.452;2024-01-16T02:09:24;-2.40;99.90
30473;DHT22;17263;48.160;11.452;2024-01-16T02:11:50;-2.40;99.90
30473;DHT22;17263;48.160;11.452;2024-01-16T02:14:16;-2.40;99.90
30473;DHT22;17263;48.160;11.452;2024-01-16T02:16:42;-2.40;99.90
30473;DHT22;17263;48.160;11.452;2024-01-16T02:19:10;-2.30;99.90
30473;DHT22;17263;48.160;11.452;2024-01-16T02:21:46;-2.30;99.90
30473;DHT22;17263;48.160;11.452;2024-01-16T02:24:15;-2.30;99.90
30473;DHT22;17263;48.160;11.452;2024-01-16T02:26:42;-2.40;99.90
30473;DHT22;17263;48.160;11.452;2024-01-16T02:29:09;-2.50;99.90
30473;DHT22;17263;48.160;11.452;2024-01-16T02:31:35;-2.50;99.90
30473;DHT22;17263;48.160;11.452;2024-01-16T02:34:01;-2.60;99.90
30473;DHT22;17263;48.160;11.452;2024-01-16T02:36:28;-2.70;99.90
30473;DHT22;17263;48.160;11.452;2024-01-16T02:38:57;-2.70;99.90
30473;DHT22;17263;48.160;11.452;2024-01-16T02:41:23;-2.80;99.90
30473;DHT22;17263;48.160;11.452;2024-01-16T02:43:49;-2.80;99.90
30473;DHT22;17263;48.160;11.452;2024-01-16T02:46:15;-2.80;99.90
30473;DHT22;17263;48.160;11.452;2024-01-16T02:48:41;-2.80;99.90
30473;DHT22;17263;48.160;11.452;2024-01-16T02:51:08;-2.90;99.90
30473;DHT22;17263;48.160;11.452;2024-01-16T02:53:34;-2.80;99.90
30473;DHT22;17263;48.160;11.452;2024-01-16T02:56:01;-2.90;99.90
30473;DHT22;17263;48.160;11.452;2024-01-16T02:58:27;-2.90;99.90
30473;DHT22;17263;48.160;11.452;2024-01-16T03:00:54;-3.00;99.90
30473;DHT22;17263;48.160;11.452;2024-01-16T03:03:20;-3.10;99.90
30473;DHT22;17263;48.160;11.452;2024-01-16T03:05:47;-3.10;99.90
30473;DHT22;17263;48.160;11.452;2024-01-16T03:08:13;-3.10;99.90
30473;DHT22;17263;48.160;11.452;2024-01-16T03:10:39;-3.10;99.90
30473;DHT22;17263;48.160;11.452;2024-01-16T03:13:05;-3.20;99.90
30473;DHT22;17263;48.160;11.452;2024-01-16T03:15:31;-3.20;99.90
30473;DHT22;17263;48.160;11.452;2024-01-16T03:18:01;-3.20;99.90
30473;DHT22;17263;48.160;11.452;2024-01-16T03:20:27;-3.10;99.90
30473;DHT22;17263;48.160;11.452;2024-01-16T03:22:54;-3.10;99.90
30473;DHT22;17263;48.160;11.452;2024-01-16T03:25:20;-3.20;99.90
30473;DHT22;17263;48.160;11.452;2024-01-16T03:27:47;-3.20;99.90
30473;DHT22;17263;48.160;11.452;2024-01-16T03:30:13;-3.30;99.90
30473;DHT22;17263;48.160;11.452;2024-01-16T03:32:39;-3.30;99.90
30473;DHT22;17263;48.160;11.452;2024-01-16T03:35:06;-3.30;99.90
30473;DHT22;17263;48.160;11.452;2024-01-16T03:37:33;-3.30;99.90
30473;DHT22;17263;48.160;11.452;2024-01-16T03:39:59;-3.40;99.90
30473;DHT22;17263;48.160;11.452;2024-01-16T03:42:25;-3.40;99.90
30473;DHT22;17263;48.160;11.452;2024-01-16T03:44:51;-3.40;99.90
30473;DHT22;17263;48.160;11.452;2024-01-16T03:47:17;-3.40;99.90
30473;DHT22;17263;48.160;11.452;2024-01-16T03:49:43;-3.40;99.90
30473;DHT22;17263;48.160;11.452;2024-01-16T03:52:09;-3.40;99.90
30473;DHT22;17263;48.160;11.452;2024-01-16T03:54:35;-3.50;99.90
30473;DHT22;17263;48.160;11.452;2024-01-16T03:57:01;-3.50;99.90
30473;DHT22;17263;48.160;11.452;2024-01-16T03:59:27;-3.50;99.90
30473;DHT22;17263;48.160;11.452;2024-01-16T04:01:54;-3.50;99.90
30473;DHT22;17263;48.160;11.452;2024-01-16T04:04:20;-3.50;99.90
30473;DHT22;17263;48.160;11.452;2024-01-16T04:06:46;-3.50;99.90
30473;DHT22;17263;48.160;11.452;2024-01-16T04:09:12;-3.50;99.90
30473;DHT22;17263;48.160;11.452;2024-01-16T04:11:40;-3.40;99.90
30473;DHT22;17263;48.160;11.452;2024-01-16T04:14:06;-3.40;99.90
30473;DHT22;17263;48.160;11.452;2024-01-16T04:16:32;-3.40;99.90
30473;DHT22;17263;48.160;11.452;2024-01-16T04:18:58;-3.40;99.90
30473;DHT22;17263;48.160;11.452;2024-01-16T04:21:25;-3.30;99.90
30473;DHT22;17263;48.160;11.452;2024-01-16T04:23:51;-3.30;99.90
30473;DHT22;17263;48.160;11.452;2024-01-16T04:26:17;-3.20;99.90
30473;DHT22;17263;48.160;11.452;2024-01-16T04:28:44;-3.20;99.90
30473;DHT22;17263;48.160;11.452;2024-01-16T04:31:10;-3.20;99.90
30473;DHT22;17263;48.160;11.452;2024-01-16T04:33:38;-3.10;99.90
30473;DHT22;17263;48.160;11.452;2024-01-16T04:36:05;-3.10;99.90
30473;DHT22;17263;48.160;11.452;2024-01-16T04:38:31;-3.00;99.90
30473;DHT22;17263;48.160;11.452;2024-01-16T04:41:00;-3.10;99.90
30473;DHT22;17263;48.160;11.452;2024-01-16T04:43:26;-3.20;99.90
30473;DHT22;17263;48.160;11.452;2024-01-16T04:45:52;-3.20;99.90
30473;DHT22;17263;48.160;11.452;2024-01-16T04:48:18;-3.30;99.90
30473;DHT22;17263;48.160;11.452;2024-01-16T04:50:44;-3.40;99.90
30473;DHT22;17263;48.160;11.452;2024-01-16T04:53:11;-3.40;99.90
30473;DHT22;17263;48.160;11.452;2024-01-16T04:55:37;-3.40;99.90
30473;DHT22;17263;48.160;11.452;2024-01-16T04:58:03;-3.50;99.90
30473;DHT22;17263;48.160;11.452;2024-01-16T05:00:29;-3.50;99.90
30473;DHT22;17263;48.160;11.452;2024-01-16T05:02:55;-3.50;99.90
30473;DHT22;17263;48.160;11.452;2024-01-16T05:05:21;-3.60;99.90
30473;DHT22;17263;48.160;11.452;2024-01-16T05:07:47;-3.60;99.90
30473;DHT22;17263;48.160;11.452;2024-01-16T05:10:13;-3.70;99.90
30473;DHT22;17263;48.160;11.452;2024-01-16T05:12:40;-3.70;99.90
30473;DHT22;17263;48.160;11.452;2024-01-16T05:15:07;-3.70;99.90
30473;DHT22;17263;48.160;11.452;2024-01-16T05:17:33;-3.70;99.90
30473;DHT22;17263;48.160;11.452;2024-01-16T05:19:59;-3.80;99.90
30473;DHT22;17263;48.160;11.452;2024-01-16T05:22:26;-3.80;99.90
30473;DHT22;17263;48.160;11.452;2024-01-16T05:24:52;-3.80;99.90
30473;DHT22;17263;48.160;11.452;2024-01-16T05:27:18;-3.80;99.90
30473;DHT22;17263;48.160;11.452;2024-01-16T05:29:44;-3.80;99.90
30473;DHT22;17263;48.160;11.452;2024-01-16T05:32:10;-3.90;99.90
30473;DHT22;17263;48.160;11.452;2024-01-16T05:34:36;-3.90;99.90
30473;DHT22;17263;48.160;11.452;2024-01-16T05:37:02;-3.90;99.90
30473;DHT22;17263;48.160;11.452;2024-01-16T05:39:28;-3.80;99.90
30473;DHT22;17263;48.160;11.452;2024-01-16T05:41:54;-3.90;99.90
30473;DHT22;17263;48.160;11.452;2024-01-16T05:44:20;-3.80;99.90
30473;DHT22;17263;48.160;11.452;2024-01-16T05:46:46;-3.90;99.90
30473;DHT22;17263;48.160;11.452;2024-01-16T05:49:12;-3.90;99.90
30473;DHT22;17263;48.160;11.452;2024-01-16T05:51:38;-4.00;99.90
30473;DHT22;17263;48.160;11.452;2024-01-16T05:54:05;-3.90;99.90
30473;DHT22;17263;48.160;11.452;2024-01-16T05:56:31;-3.90;99.90
30473;DHT22;17263;48.160;11.452;2024-01-16T05:58:57;-3.90;99.90
30473;DHT22;17263;48.160;11.452;2024-01-16T06:01:23;-3.90;99.90
30473;DHT22;17263;48.160;11.452;2024-01-16T06:03:49;-4.00;99.90
30473;DHT22;17263;48.160;11.452;2024-01-16T06:06:16;-4.00;99.90
30473;DHT22;17263;48.160;11.452;2024-01-16T06:08:42;-4.00;99.90
30473;DHT22;17263;48.160;11.452;2024-01-16T06:11:08;-4.00;99.90
30473;DHT22;17263;48.160;11.452;2024-01-16T06:13:34;-4.00;99.90
30473;DHT22;17263;48.160;11.452;2024-01-16T06:16:00;-4.00;99.90
30473;DHT22;17263;48.160;11.452;2024-01-16T06:18:26;-4.00;99.90
30473;DHT22;17263;48.160;11.452;2024-01-16T06:20:52;-3.90;99.90
30473;DHT22;17263;48.160;11.452;2024-01-16T06:23:18;-3.90;99.90
30473;DHT22;17263;48.160;11.452;2024-01-16T06:25:44;-3.90;99.90
30473;DHT22;17263;48.160;11.452;2024-01-16T06:28:10;-3.90;99.90
30473;DHT22;17263;48.160;11.452;2024-01-16T06:30:36;-3.90;99.90
30473;DHT22;17263;48.160;11.452;2024-01-16T06:33:02;-4.00;99.90
30473;DHT22;17263;48.160;11.452;2024-01-16T06:35:28;-4.00;99.90
30473;DHT22;17263;48.160;11.452;2024-01-16T06:37:55;-4.00;99.90
30473;DHT22;17263;48.160;11.452;2024-01-16T06:40:21;-4.00;99.90
30473;DHT22;17263;48.160;11.452;2024-01-16T06:42:47;-4.00;99.90
30473;DHT22;17263;48.160;11.452;2024-01-16T06:45:13;-4.00;99.90
30473;DHT22;17263;48.160;11.452;2024-01-16T06:47:41;-4.00;99.90
30473;DHT22;17263;48.160;11.452;2024-01-16T06:50:07;-4.00;99.90
30473;DHT22;17263;48.160;11.452;2024-01-16T06:52:33;-4.00;99.90
30473;DHT22;17263;48.160;11.452;2024-01-16T06:55:00;-3.90;99.90
30473;DHT22;17263;48.160;11.452;2024-01-16T06:57:26;-4.00;99.90
30473;DHT22;17263;48.160;11.452;2024-01-16T06:59:53;-3.90;99.90
30473;DHT22;17263;48.160;11.452;2024-01-16T07:02:19;-3.90;99.90
30473;DHT22;17263;48.160;11.452;2024-01-16T07:04:45;-3.90;99.90
30473;DHT22;17263;48.160;11.452;2024-01-16T07:07:11;-3.90;99.90
30473;DHT22;17263;48.160;11.452;2024-01-16T07:09:37;-3.90;99.90
30473;DHT22;17263;48.160;11.452;2024-01-16T07:12:03;-3.80;99.90
30473;DHT22;17263;48.160;11.452;2024-01-16T07:14:32;-3.80;99.90
30473;DHT22;17263;48.160;11.452;2024-01-16T07:16:58;-3.70;99.90
30473;DHT22;17263;48.160;11.452;2024-01-16T07:19:24;-3.70;99.90
30473;DHT22;17263;48.160;11.452;2024-01-16T07:21:50;-3.70;99.90
30473;DHT22;17263;48.160;11.452;2024-01-16T07:24:16;-3.60;99.90
30473;DHT22;17263;48.160;11.452;2024-01-16T07:26:42;-3.60;99.90
30473;DHT22;17263;48.160;11.452;2024-01-16T07:29:08;-3.50;99.90
30473;DHT22;17263;48.160;11.452;2024-01-16T07:31:34;-3.50;99.90
30473;DHT22;17263;48.160;11.452;2024-01-16T07:34:00;-3.40;99.90
30473;DHT22;17263;48.160;11.452;2024-01-16T07:36:26;-3.40;99.90
30473;DHT22;17263;48.160;11.452;2024-01-16T07:38:52;-3.20;99.90
30473;DHT22;17263;48.160;11.452;2024-01-16T07:41:18;-3.20;99.90
30473;DHT22;17263;48.160;11.452;2024-01-16T07:43:44;-3.20;99.90
30473;DHT22;17263;48.160;11.452;2024-01-16T07:46:11;-3.10;99.90
30473;DHT22;17263;48.160;11.452;2024-01-16T07:48:37;-3.00;99.90
30473;DHT22;17263;48.160;11.452;2024-01-16T07:51:03;-3.00;99.90
30473;DHT22;17263;48.160;11.452;2024-01-16T07:53:29;-2.90;99.90
30473;DHT22;17263;48.160;11.452;2024-01-16T07:55:55;-2.90;99.90
30473;DHT22;17263;48.160;11.452;2024-01-16T07:58:21;-2.80;99.90
30473;DHT22;17263;48.160;11.452;2024-01-16T08:00:47;-2.80;99.90
30473;DHT22;17263;48.160;11.452;2024-01-16T08:03:14;-2.80;99.90
30473;DHT22;17263;48.160;11.452;2024-01-16T08:05:40;-2.70;99.90
30473;DHT22;17263;48.160;11.452;2024-01-16T08:08:10;-2.60;99.90
30473;DHT22;17263;48.160;11.452;2024-01-16T08:10:36;-2.50;99.90
30473;DHT22;17263;48.160;11.452;2024-01-16T08:13:02;-2.50;99.90
30473;DHT22;17263;48.160;11.452;2024-01-16T08:15:29;-2.50;99.90
30473;DHT22;17263;48.160;11.452;2024-01-16T08:17:55;-2.40;99.90
30473;DHT22;17263;48.160;11.452;2024-01-16T08:20:21;-2.40;99.90
30473;DHT22;17263;48.160;11.452;2024-01-16T08:22:47;-2.20;99.90
30473;DHT22;17263;48.160;11.452;2024-01-16T08:25:13;-2.20;99.90
30473;DHT22;17263;48.160;11.452;2024-01-16T08:27:39;-2.10;99.90
30473;DHT22;17263;48.160;11.452;2024-01-16T08:30:06;-2.00;99.90
30473;DHT22;17263;48.160;11.452;2024-01-16T08:32:32;-2.00;99.90
30473;DHT22;17263;48.160;11.452;2024-01-16T08:34:58;-1.90;99.90
30473;DHT22;17263;48.160;11.452;2024-01-16T08:37:24;-1.90;99.90
30473;DHT22;17263;48.160;11.452;2024-01-16T08:39:51;-1.70;99.90
30473;DHT22;17263;48.160;11.452;2024-01-16T08:42:17;-1.70;99.90
30473;DHT22;17263;48.160;11.452;2024-01-16T08:44:44;-1.60;99.90
30473;DHT22;17263;48.160;11.452;2024-01-16T08:47:10;-1.60;99.90
30473;DHT22;17263;48.160;11.452;2024-01-16T08:49:36;-1.50;99.90
30473;DHT22;17263;48.160;11.452;2024-01-16T08:52:04;-1.50;99.90
30473;DHT22;17263;48.160;11.452;2024-01-16T08:54:31;-1.40;99.90
30473;DHT22;17263;48.160;11.452;2024-01-16T08:56:57;-1.40;99.90
30473;DHT22;17263;48.160;11.452;2024-01-16T08:59:24;-1.30;99.90
30473;DHT22;17263;48.160;11.452;2024-01-16T09:01:50;-1.20;99.90
30473;DHT22;17263;48.160;11.452;2024-01-16T09:04:17;-1.10;99.90
30473;DHT22;17263;48.160;11.452;2024-01-16T09:06:43;-0.90;99.90
30473;DHT22;17263;48.160;11.452;2024-01-16T09:09:09;-0.70;99.90
30473;DHT22;17263;48.160;11.452;2024-01-16T09:11:35;-0.70;99.90
30473;DHT22;17263;48.160;11.452;2024-01-16T09:14:01;-0.60;99.90
30473;DHT22;17263;48.160;11.452;2024-01-16T09:16:27;-0.40;99.90
30473;DHT22;17263;48.160;11.452;2024-01-16T09:18:53;-0.20;99.90
30473;DHT22;17263;48.160;11.452;2024-01-16T09:21:20;0.00;99.90
30473;DHT22;17263;48.160;11.452;2024-01-16T09:23:46;0.10;99.90
30473;DHT22;17263;48.160;11.452;2024-01-16T09:26:13;0.20;99.90
30473;DHT22;17263;48.160;11.452;2024-01-16T09:28:39;0.30;99.90
30473;DHT22;17263;48.160;11.452;2024-01-16T09:31:08;0.40;99.90
30473;DHT22;17263;48.160;11.452;2024-01-16T09:33:34;0.40;99.90
30473;DHT22;17263;48.160;11.452;2024-01-16T09:36:00;0.40;99.90
30473;DHT22;17263;48.160;11.452;2024-01-16T09:38:26;0.50;99.90
30473;DHT22;17263;48.160;11.452;2024-01-16T09:40:53;0.60;99.90
30473;DHT22;17263;48.160;11.452;2024-01-16T09:43:22;0.60;99.90
30473;DHT22;17263;48.160;11.452;2024-01-16T09:45:49;0.60;99.90
30473;DHT22;17263;48.160;11.452;2024-01-16T09:48:17;0.60;99.90
30473;DHT22;17263;48.160;11.452;2024-01-16T09:50:43;0.60;99.90
30473;DHT22;17263;48.160;11.452;2024-01-16T09:53:09;0.60;99.90
30473;DHT22;17263;48.160;11.452;2024-01-16T09:55:36;0.60;99.90
30473;DHT22;17263;48.160;11.452;2024-01-16T09:58:02;0.60;99.90
30473;DHT22;17263;48.160;11.452;2024-01-16T10:00:32;0.60;99.90
30473;DHT22;17263;48.160;11.452;2024-01-16T10:02:59;0.60;99.90
30473;DHT22;17263;48.160;11.452;2024-01-16T10:05:25;0.70;99.90
30473;DHT22;17263;48.160;11.452;2024-01-16T10:07:52;0.80;99.90
30473;DHT22;17263;48.160;11.452;2024-01-16T10:10:18;0.80;99.90
30473;DHT22;17263;48.160;11.452;2024-01-16T10:12:47;0.80;99.90
30473;DHT22;17263;48.160;11.452;2024-01-16T10:15:16;0.80;99.90
30473;DHT22;17263;48.160;11.452;2024-01-16T10:17:42;0.90;99.90
30473;DHT22;17263;48.160;11.452;2024-01-16T10:20:10;1.00;99.90
30473;DHT22;17263;48.160;11.452;2024-01-16T10:22:40;1.00;99.90
30473;DHT22;17263;48.160;11.452;2024-01-16T10:25:11;1.00;99.90
30473;DHT22;17263;48.160;11.452;2024-01-16T10:27:45;1.10;99.90
30473;DHT22;17263;48.160;11.452;2024-01-16T10:30:12;1.10;99.90
30473;DHT22;17263;48.160;11.452;2024-01-16T10:32:40;1.10;99.90
30473;DHT22;17263;48.160;11.452;2024-01-16T10:35:09;1.20;99.90
30473;DHT22;17263;48.160;11.452;2024-01-16T10:37:43;1.30;99.90
30473;DHT22;17263;48.160;11.452;2024-01-16T10:40:10;1.40;99.90
30473;DHT22;17263;48.160;11.452;2024-01-16T10:42:40;1.50;99.90
30473;DHT22;17263;48.160;11.452;2024-01-16T10:45:07;1.50;99.90
30473;DHT22;17263;48.160;11.452;2024-01-16T10:47:34;1.50;99.90
30473;DHT22;17263;48.160;11.452;2024-01-16T10:50:04;1.40;99.90
30473;DHT22;17263;48.160;11.452;2024-01-16T10:52:35;1.30;99.90
30473;DHT22;17263;48.160;11.452;2024-01-16T10:55:08;1.40;99.90
30473;DHT22;17263;48.160;11.452;2024-01-16T10:57:39;1.40;99.90
30473;DHT22;17263;48.160;11.452;2024-01-16T11:00:09;1.50;99.90
30473;DHT22;17263;48.160;11.452;2024-01-16T11:02:43;1.50;99.90
30473;DHT22;17263;48.160;11.452;2024-01-16T11:05:15;1.60;99.90
30473;DHT22;17263;48.160;11.452;2024-01-16T11:07:42;1.60;99.90
30473;DHT22;17263;48.160;11.452;2024-01-16T11:10:10;1.60;99.90
30473;DHT22;17263;48.160;11.452;2024-01-16T11:12:39;1.70;99.90
30473;DHT22;17263;48.160;11.452;2024-01-16T11:15:08;1.70;99.90
30473;DHT22;17263;48.160;11.452;2024-01-16T11:17:37;1.80;99.90
30473;DHT22;17263;48.160;11.452;2024-01-16T11:20:05;1.80;99.90
30473;DHT22;17263;48.160;11.452;2024-01-16T11:22:43;1.80;99.90
30473;DHT22;17263;48.160;11.452;2024-01-16T11:25:12;1.80;99.90
30473;DHT22;17263;48.160;11.452;2024-01-16T11:27:40;1.80;99.90
30473;DHT22;17263;48.160;11.452;2024-01-16T11:30:11;1.70;99.90
30473;DHT22;17263;48.160;11.452;2024-01-16T11:32:41;1.70;99.90
30473;DHT22;17263;48.160;11.452;2024-01-16T11:35:08;1.70;99.90
30473;DHT22;17263;48.160;11.452;2024-01-16T11:37:35;1.60;99.90
30473;DHT22;17263;48.160;11.452;2024-01-16T11:42:48;1.70;99.90
30473;DHT22;17263;48.160;11.452;2024-01-16T11:48:12;1.50;99.90
30473;DHT22;17263;48.160;11.452;2024-01-16T11:50:38;1.50;99.90
30473;DHT22;17263;48.160;11.452;2024-01-16T11:53:04;1.50;99.90
30473;DHT22;17263;48.160;11.452;2024-01-16T11:55:35;1.60;99.90
30473;DHT22;17263;48.160;11.452;2024-01-16T11:58:21;1.60;99.90
30473;DHT22;17263;48.160;11.452;2024-01-16T12:00:53;1.50;99.90
30473;DHT22;17263;48.160;11.452;2024-01-16T12:03:23;1.50;99.90
30473;DHT22;17263;48.160;11.452;2024-01-16T12:05:59;1.50;99.90
30473;DHT22;17263;48.160;11.452;2024-01-16T12:08:26;1.40;99.90
30473;DHT22;17263;48.160;11.452;2024-01-16T12:10:52;1.50;99.90
30473;DHT22;17263;48.160;11.452;2024-01-16T12:13:18;1.50;99.90
30473;DHT22;17263;48.160;11.452;2024-01-16T12:15:44;1.60;99.90
30473;DHT22;17263;48.160;11.452;2024-01-16T12:18:18;1.70;99.90
30473;DHT22;17263;48.160;11.452;2024-01-16T12:20:44;1.70;99.90
30473;DHT22;17263;48.160;11.452;2024-01-16T12:23:10;1.70;99.90
30473;DHT22;17263;48.160;11.452;2024-01-16T12:25:37;1.70;99.90
30473;DHT22;17263;48.160;11.452;2024-01-16T12:28:08;1.60;99.90
30473;DHT22;17263;48.160;11.452;2024-01-16T12:30:37;1.50;99.90
30473;DHT22;17263;48.160;11.452;2024-01-16T12:33:05;1.50;99.90
30473;DHT22;17263;48.160;11.452;2024-01-16T12:35:36;1.50;99.90
30473;DHT22;17263;48.160;11.452;2024-01-16T12:38:05;1.50;99.90
30473;DHT22;17263;48.160;11.452;2024-01-16T12:40:35;1.40;99.90
30473;DHT22;17263;48.160;11.452;2024-01-16T12:43:05;1.50;99.90
30473;DHT22;17263;48.160;11.452;2024-01-16T12:45:31;1.50;99.90
30473;DHT22;17263;48.160;11.452;2024-01-16T12:47:59;1.60;99.90
30473;DHT22;17263;48.160;11.452;2024-01-16T12:50:27;1.60;99.90
30473;DHT22;17263;48.160;11.452;2024-01-16T12:53:11;1.70;99.90
30473;DHT22;17263;48.160;11.452;2024-01-16T12:55:40;1.80;99.90
30473;DHT22;17263;48.160;11.452;2024-01-16T12:58:19;1.80;99.90
30473;DHT22;17263;48.160;11.452;2024-01-16T13:00:47;1.70;99.90
30473;DHT22;17263;48.160;11.452;2024-01-16T13:03:19;1.70;99.90
30473;DHT22;17263;48.160;11.452;2024-01-16T13:05:56;1.80;99.90
30473;DHT22;17263;48.160;11.452;2024-01-16T13:08:23;1.70;99.90
30473;DHT22;17263;48.160;11.452;2024-01-16T13:11:04;1.60;99.90
30473;DHT22;17263;48.160;11.452;2024-01-16T13:13:31;1.60;99.90
30473;DHT22;17263;48.160;11.452;2024-01-16T13:15:58;1.70;99.90
30473;DHT22;17263;48.160;11.452;2024-01-16T13:18:26;1.70;99.90
30473;DHT22;17263;48.160;11.452;2024-01-16T13:20:53;1.60;99.90
30473;DHT22;17263;48.160;11.452;2024-01-16T13:23:20;1.50;99.90
30473;DHT22;17263;48.160;11.452;2024-01-16T13:25:48;1.50;99.90
30473;DHT22;17263;48.160;11.452;2024-01-16T13:28:16;1.50;99.90
30473;DHT22;17263;48.160;11.452;2024-01-16T13:30:43;1.50;99.90
30473;DHT22;17263;48.160;11.452;2024-01-16T13:33:09;1.50;99.90
30473;DHT22;17263;48.160;11.452;2024-01-16T13:35:39;1.40;99.90
30473;DHT22;17263;48.160;11.452;2024-01-16T13:38:09;1.50;99.90
30473;DHT22;17263;48.160;11.452;2024-01-16T13:40:35;1.50;99.90
30473;DHT22;17263;48.160;11.452;2024-01-16T13:43:03;1.50;99.90
30473;DHT22;17263;48.160;11.452;2024-01-16T13:45:30;1.40;99.90
30473;DHT22;17263;48.160;11.452;2024-01-16T13:47:56;1.30;99.90
30473;DHT22;17263;48.160;11.452;2024-01-16T13:50:23;1.30;99.90
30473;DHT22;17263;48.160;11.452;2024-01-16T13:52:50;1.30;99.90
30473;DHT22;17263;48.160;11.452;2024-01-16T13:55:17;1.20;99.90
30473;DHT22;17263;48.160;11.452;2024-01-16T13:57:43;1.20;99.90
30473;DHT22;17263;48.160;11.452;2024-01-16T14:00:12;1.20;99.90
30473;DHT22;17263;48.160;11.452;2024-01-16T14:02:40;1.20;99.90
30473;DHT22;17263;48.160;11.452;2024-01-16T14:05:09;1.20;99.90
30473;DHT22;17263;48.160;11.452;2024-01-16T14:07:41;1.20;99.90
30473;DHT22;17263;48.160;11.452;2024-01-16T14:10:08;1.20;99.90
30473;DHT22;17263;48.160;11.452;2024-01-16T14:12:45;1.10;99.90
30473;DHT22;17263;48.160;11.452;2024-01-16T14:15:16;1.10;99.90
30473;DHT22;17263;48.160;11.452;2024-01-16T14:17:45;1.00;99.90
30473;DHT22;17263;48.160;11.452;2024-01-16T14:20:13;1.00;99.90
30473;DHT22;17263;48.160;11.452;2024-01-16T14:22:39;1.00;99.90
30473;DHT22;17263;48.160;11.452;2024-01-16T14:25:10;1.10;99.90
30473;DHT22;17263;48.160;11.452;2024-01-16T14:27:41;1.00;99.90
30473;DHT22;17263;48.160;11.452;2024-01-16T14:30:09;0.90;99.90
30473;DHT22;17263;48.160;11.452;2024-01-16T14:32:41;0.90;99.90
30473;DHT22;17263;48.160;11.452;2024-01-16T14:35:07;1.00;99.90
30473;DHT22;17263;48.160;11.452;2024-01-16T14:37:36;1.00;99.90
30473;DHT22;17263;48.160;11.452;2024-01-16T14:40:03;0.90;99.90
30473;DHT22;17263;48.160;11.452;2024-01-16T14:42:44;0.80;99.90
30473;DHT22;17263;48.160;11.452;2024-01-16T14:45:10;0.80;99.90
30473;DHT22;17263;48.160;11.452;2024-01-16T14:47:39;0.80;99.90
30473;DHT22;17263;48.160;11.452;2024-01-16T14:50:08;0.70;99.90
30473;DHT22;17263;48.160;11.452;2024-01-16T14:52:35;0.70;99.90
30473;DHT22;17263;48.160;11.452;2024-01-16T14:55:02;0.60;99.90
30473;DHT22;17263;48.160;11.452;2024-01-16T14:57:33;0.50;99.90
30473;DHT22;17263;48.160;11.452;2024-01-16T15:00:14;0.60;99.90
30473;DHT22;17263;48.160;11.452;2024-01-16T15:02:49;0.50;99.90
30473;DHT22;17263;48.160;11.452;2024-01-16T15:05:16;0.40;99.90
30473;DHT22;17263;48.160;11.452;2024-01-16T15:07:43;0.40;99.90
30473;DHT22;17263;48.160;11.452;2024-01-16T15:10:10;0.30;99.90
30473;DHT22;17263;48.160;11.452;2024-01-16T15:12:44;0.30;99.90
30473;DHT22;17263;48.160;11.452;2024-01-16T15:15:11;0.30;99.90
30473;DHT22;17263;48.160;11.452;2024-01-16T15:17:39;0.30;99.90
30473;DHT22;17263;48.160;11.452;2024-01-16T15:20:07;0.30;99.90
30473;DHT22;17263;48.160;11.452;2024-01-16T15:22:41;0.30;99.90
30473;DHT22;17263;48.160;11.452;2024-01-16T15:25:10;0.20;99.90
30473;DHT22;17263;48.160;11.452;2024-01-16T15:27:37;0.20;99.90